Hovedside
METAR-TAF:

METAR-TAF

Lufthavner :

Helsingborg, Sverige

Ängelholm-Helsingborg lufthavn

breddegrad: 56-17-46N, lengdegrad: 012-50-50E, høyde over havet: 21 m

Gjeldene værobservasjon

Denne rapporten ble laget for 18 minutter siden, klokken 07:20 UTC
Vind 17 kt fra Vest-nordvest
Temperatur 10°C
Luftfuktighet 76%
Trykk 1017 hPa
Sikt 10 km eller mer
ingen skyer under 1500 m og ingen bygeskyer

METAR: ESTA 210720Z 29017KT CAVOK 10/06 Q1017

Tid: 09:38 (07:38 UTC)

Varsel

Denne rapporten ble laget for 2 timer og 45 minutter siden, klokken 04:53 UTC
Varsel gyldig fra 21. klokken 06 UTC til 21. klokken 15 UTC
Vind 12 kt fra Vest-nordvest
Sikt 10 km eller mer
ingen skyer under 1500 m og ingen bygeskyer
Midlertidig
fra 21. klokken 06 UTC til 21. klokken 15 UTC
Vind 15 kt fra Vest-nordvest med vindkast opp mot 28 kt

TAF: ESTA 210453Z 2106/2115 30012KT CAVOK TEMPO 2106/2115 30015G28KT

Værobservasjoner og værvarsel for over 4000 flyplasser (METAR- og TAF-rapporter).

Tilgjengelige stasjoner er representert av de røde og gule prikkene på kartet.

Hold musepekeren over prikken for å se navnet på stasjonen.

Klikk så for å se værobservasjoner og -varsler.

For å forandre kartet kan du klikke på den grønne knappen med svart kryss for å zoome inn, på den grønne knappen med strek for å zoome ut, eller på de grønne pilene for å se tilstøtende kart.


METAR-TAF: